Time;durP1;ratioP1;P1;durP2;ratioP2;P2;SDS_P1;SDS_P2;PMS_P1;PMS_P2;Temp;Humidity;BMP_temperature;BMP_pressure;BME280_temperature;BME280_humidity;BME280_pressure;Samples;Min_cycle;Max_cycle;Signal;HPM_P1;HPM_P2
2022/05/12 00:01:01;;;;;;;;;;;;;;;8.87;100.00;100092.63;1661845;86;20106;-69
2022/05/12 00:03:28;;;;;;;;;;;;;;;8.82;100.00;100100.34;1662073;86;20439;-69
2022/05/12 00:05:55;;;;;;;;;;;;;;;8.78;100.00;100092.23;1661827;86;20162;-69
2022/05/12 00:08:22;;;;;;;;;;;;;;;8.73;100.00;100098.95;1662099;86;20506;-70
2022/05/12 00:10:49;;;;;;;;;;;;;;;8.69;100.00;100098.94;1661891;86;20419;-70
2022/05/12 00:13:16;;;;;;;;;;;;;;;8.64;100.00;100099.03;1662167;86;20138;-70
2022/05/12 00:15:43;;;;;;;;;;;;;;;8.60;100.00;100099.85;1661797;86;20102;-70
2022/05/12 00:18:10;;;;;;;;;;;;;;;8.59;100.00;100095.96;1662150;86;20118;-69
2022/05/12 00:20:39;;;;;;;;;;;;;;;8.56;100.00;100094.44;1645234;86;20167;-69
2022/05/12 00:23:09;;;;;;;;;;;;;;;8.52;100.00;100090.38;1659296;84;20130;-69
2022/05/12 00:25:35;;;;;;;;;;;;;;;8.49;100.00;100092.03;1649069;87;20108;-69
2022/05/12 00:28:04;;;;;;;;;;;;;;;8.46;100.00;100093.17;1649703;87;20373;-70
2022/05/12 00:30:31;;;;;;;;;;;;;;;8.43;100.00;100096.20;1650260;86;20111;-70
2022/05/12 00:32:58;;;;;;;;;;;;;;;8.39;100.00;100089.89;1675360;86;20453;-68
2022/05/12 00:35:26;;;;;;;;;;;;;;;8.33;100.00;100090.02;1675013;86;20501;-69
2022/05/12 00:37:53;;;;;;;;;;;;;;;8.27;100.00;100088.79;1675369;86;20093;-70
2022/05/12 00:40:19;;;;;;;;;;;;;;;8.22;100.00;100091.10;1675082;86;20137;-70
2022/05/12 00:42:55;;;;;;;;;;;;;;;8.17;100.00;100087.52;1671207;85;20118;-69
2022/05/12 00:45:22;;;;;;;;;;;;;;;8.14;100.00;100084.28;1671082;86;20398;-70
2022/05/12 00:47:48;;;;;;;;;;;;;;;8.11;100.00;100088.14;1670983;86;20137;-69
2022/05/12 00:50:16;;;;;;;;;;;;;;;8.09;100.00;100083.41;1670713;86;20125;-70
2022/05/12 00:52:43;;;;;;;;;;;;;;;8.05;100.00;100083.36;1670959;86;20105;-69
2022/05/12 00:55:17;;;;;;;;;;;;;;;8.01;100.00;100087.36;1670785;86;20105;-70
2022/05/12 00:57:47;;;;;;;;;;;;;;;7.98;100.00;100082.28;1662695;86;20418;-70
2022/05/12 01:00:15;;;;;;;;;;;;;;;7.93;100.00;100091.31;1664717;86;20431;-69
2022/05/12 01:02:42;;;;;;;;;;;;;;;7.90;100.00;100088.95;1664802;86;20118;-70
2022/05/12 01:05:09;;;;;;;;;;;;;;;7.85;100.00;100089.39;1664288;83;20110;-69
2022/05/12 01:07:37;;;;;;;;;;;;;;;7.82;100.00;100092.89;1664476;86;20118;-69
2022/05/12 01:10:04;;;;;;;;;;;;;;;7.77;100.00;100089.30;1664673;86;20098;-69
2022/05/12 01:12:32;;;;;;;;;;;;;;;7.73;100.00;100082.02;1664707;86;20140;-70
2022/05/12 01:14:59;;;;;;;;;;;;;;;7.69;100.00;100083.33;1664693;86;20201;-68
2022/05/12 01:17:26;;;;;;;;;;;;;;;7.66;100.00;100084.13;1664571;86;20415;-69
2022/05/12 01:19:53;;;;;;;;;;;;;;;7.63;100.00;100082.58;1664695;86;20139;-69
2022/05/12 01:22:32;;;;;;;;;;;;;;;7.58;100.00;100088.94;1665124;86;20098;-70
2022/05/12 01:25:00;;;;;;;;;;;;;;;7.55;100.00;100091.92;1656783;87;20178;-70
2022/05/12 01:27:30;;;;;;;;;;;;;;;7.49;100.00;100090.68;1692170;85;20109;-70
2022/05/12 01:29:57;;;;;;;;;;;;;;;7.48;100.00;100090.83;1692496;85;20112;-69
2022/05/12 01:32:26;;;;;;;;;;;;;;;7.48;100.00;100086.28;1693273;83;20156;-69
2022/05/12 01:34:53;;;;;;;;;;;;;;;7.51;100.00;100090.03;1693745;85;20120;-69
2022/05/12 01:37:21;;;;;;;;;;;;;;;7.54;100.00;100097.81;1693622;85;20104;-70
2022/05/12 01:39:47;;;;;;;;;;;;;;;7.54;100.00;100096.47;1693816;85;20144;-69
2022/05/12 01:42:15;;;;;;;;;;;;;;;7.54;100.00;100096.94;1708186;83;20367;-70
2022/05/12 01:44:42;;;;;;;;;;;;;;;7.55;100.00;100095.95;1719649;83;20137;-70
2022/05/12 01:47:09;;;;;;;;;;;;;;;7.54;100.00;100089.73;1719559;83;20133;-71
2022/05/12 01:49:36;;;;;;;;;;;;;;;7.55;100.00;100088.72;1719620;83;20165;-70
2022/05/12 01:52:04;;;;;;;;;;;;;;;7.56;100.00;100086.87;1719314;83;20414;-69
2022/05/12 01:54:30;;;;;;;;;;;;;;;7.58;100.00;100088.42;1733187;82;20397;-70
2022/05/12 01:56:57;;;;;;;;;;;;;;;7.62;100.00;100082.75;1738042;82;20108;-70
2022/05/12 01:59:24;;;;;;;;;;;;;;;7.60;100.00;100082.39;1737677;83;20401;-70
2022/05/12 02:01:52;;;;;;;;;;;;;;;7.59;100.00;100083.38;1737476;83;20432;-70
2022/05/12 02:04:19;;;;;;;;;;;;;;;7.60;100.00;100085.09;1737782;83;20136;-70
2022/05/12 02:06:46;;;;;;;;;;;;;;;7.60;100.00;100086.42;1737485;83;20132;-69
2022/05/12 02:09:14;;;;;;;;;;;;;;;7.59;100.00;100087.41;1737659;83;20429;-70
2022/05/12 02:11:41;;;;;;;;;;;;;;;7.54;100.00;100088.39;1737438;83;20109;-69
2022/05/12 02:14:07;;;;;;;;;;;;;;;7.50;100.00;100084.28;1737745;83;20133;-69
2022/05/12 02:16:35;;;;;;;;;;;;;;;7.46;100.00;100092.31;1737529;83;20424;-69
2022/05/12 02:19:03;;;;;;;;;;;;;;;7.39;100.00;100094.75;1737619;83;20104;-70
2022/05/12 02:21:29;;;;;;;;;;;;;;;7.35;100.00;100088.50;1737293;83;20113;-69
2022/05/12 02:23:57;;;;;;;;;;;;;;;7.31;100.00;100094.67;1737609;81;20108;-70
2022/05/12 02:26:25;;;;;;;;;;;;;;;7.29;100.00;100095.29;1737873;83;20135;-69
2022/05/12 02:28:52;;;;;;;;;;;;;;;7.26;100.00;100099.64;1737764;83;20108;-70
2022/05/12 02:31:19;;;;;;;;;;;;;;;7.25;100.00;100103.31;1737346;81;20101;-71
2022/05/12 02:33:46;;;;;;;;;;;;;;;7.21;100.00;100099.23;1737306;83;20140;-69
2022/05/12 02:36:14;;;;;;;;;;;;;;;7.19;100.00;100105.27;1737280;83;20133;-70
2022/05/12 02:38:41;;;;;;;;;;;;;;;7.18;100.00;100106.25;1737728;83;20133;-70
2022/05/12 02:41:08;;;;;;;;;;;;;;;7.17;100.00;100110.79;1737394;83;20128;-70
2022/05/12 02:43:35;;;;;;;;;;;;;;;7.17;100.00;100113.48;1737389;83;20132;-70
2022/05/12 02:46:05;;;;;;;;;;;;;;;7.17;100.00;100110.79;1737489;83;20133;-70
2022/05/12 02:48:34;;;;;;;;;;;;;;;7.17;100.00;100112.13;1683112;85;20122;-70
2022/05/12 02:51:01;;;;;;;;;;;;;;;7.19;100.00;100110.64;1683198;85;20085;-70
2022/05/12 02:53:28;;;;;;;;;;;;;;;7.20;100.00;100111.81;1682927;85;20101;-70
2022/05/12 02:55:55;;;;;;;;;;;;;;;7.21;100.00;100110.84;1683058;85;20136;-70
2022/05/12 02:58:22;;;;;;;;;;;;;;;7.22;100.00;100109.85;1683174;85;20109;-70
2022/05/12 03:00:50;;;;;;;;;;;;;;;7.25;100.00;100110.04;1683035;85;20093;-70
2022/05/12 03:03:16;;;;;;;;;;;;;;;7.26;100.00;100107.72;1682900;85;20113;-70
2022/05/12 03:05:44;;;;;;;;;;;;;;;7.29;100.00;100110.59;1682907;85;20102;-70
2022/05/12 03:08:13;;;;;;;;;;;;;;;7.32;100.00;100099.03;1660267;85;20437;-70
2022/05/12 03:10:40;;;;;;;;;;;;;;;7.35;100.00;100106.81;1683979;85;20109;-70
2022/05/12 03:13:06;;;;;;;;;;;;;;;7.39;100.00;100110.05;1683878;85;20137;-69
2022/05/12 03:15:34;;;;;;;;;;;;;;;7.44;100.00;100100.17;1683274;85;20105;-69
2022/05/12 03:18:01;;;;;;;;;;;;;;;7.49;100.00;100108.64;1683053;85;20113;-70
2022/05/12 03:20:31;;;;;;;;;;;;;;;7.54;100.00;100109.92;1682953;85;20089;-69
2022/05/12 03:22:58;;;;;;;;;;;;;;;7.62;100.00;100109.16;1683343;85;20395;-70
2022/05/12 03:25:25;;;;;;;;;;;;;;;7.69;100.00;100112.10;1683317;85;20165;-69
2022/05/12 03:27:52;;;;;;;;;;;;;;;7.73;100.00;100111.63;1682899;85;20117;-69
2022/05/12 03:30:20;;;;;;;;;;;;;;;7.78;100.00;100110.68;1683165;85;20138;-69
2022/05/12 03:32:47;;;;;;;;;;;;;;;7.83;100.00;100111.59;1683086;85;20113;-70
2022/05/12 03:35:14;;;;;;;;;;;;;;;7.89;100.00;100115.51;1682935;85;20133;-71
2022/05/12 03:37:43;;;;;;;;;;;;;;;7.95;100.00;100112.19;1683314;85;20097;-70
2022/05/12 03:40:11;;;;;;;;;;;;;;;8.01;100.00;100122.88;1683103;85;20113;-69
2022/05/12 03:42:38;;;;;;;;;;;;;;;8.08;100.00;100115.88;1675225;85;20146;-70
2022/05/12 03:45:06;;;;;;;;;;;;;;;8.14;100.00;100112.56;1694391;83;20136;-70
2022/05/12 03:47:34;;;;;;;;;;;;;;;8.22;100.00;100114.00;1729681;83;20100;-70
2022/05/12 03:50:04;;;;;;;;;;;;;;;8.31;100.00;100118.45;1729544;83;20084;-70
2022/05/12 03:52:31;;;;;;;;;;;;;;;8.40;100.00;100115.33;1729395;83;20109;-70
2022/05/12 03:54:58;;;;;;;;;;;;;;;8.50;100.00;100120.17;1729336;83;20116;-70
2022/05/12 03:57:26;;;;;;;;;;;;;;;8.61;100.00;100123.62;1729519;83;20223;-69
2022/05/12 03:59:53;;;;;;;;;;;;;;;8.71;100.00;100127.92;1729463;83;20122;-69
2022/05/12 04:02:20;;;;;;;;;;;;;;;8.83;100.00;100123.10;1729491;82;20140;-70
2022/05/12 04:04:47;;;;;;;;;;;;;;;8.97;100.00;100129.77;1729290;83;20137;-70
2022/05/12 04:07:15;;;;;;;;;;;;;;;9.11;100.00;100127.00;1729625;82;20397;-69
2022/05/12 04:09:42;;;;;;;;;;;;;;;9.25;100.00;100126.92;1729126;83;20449;-70
2022/05/12 04:12:10;;;;;;;;;;;;;;;9.40;100.00;100128.02;1729580;83;20144;-69
2022/05/12 04:14:38;;;;;;;;;;;;;;;9.56;100.00;100119.63;1729244;83;20125;-70
2022/05/12 04:17:06;;;;;;;;;;;;;;;9.71;100.00;100118.52;1729460;81;20456;-69
2022/05/12 04:19:32;;;;;;;;;;;;;;;9.85;100.00;100117.38;1729360;83;20111;-69
2022/05/12 04:21:59;;;;;;;;;;;;;;;10.02;100.00;100120.97;1729231;83;20116;-69
2022/05/12 04:24:26;;;;;;;;;;;;;;;10.17;100.00;100114.41;1729482;83;20136;-69
2022/05/12 04:26:53;;;;;;;;;;;;;;;10.36;100.00;100121.39;1729312;83;20386;-70
2022/05/12 04:29:20;;;;;;;;;;;;;;;10.56;100.00;100126.47;1729608;83;20104;-69
2022/05/12 04:31:47;;;;;;;;;;;;;;;10.76;100.00;100122.39;1729159;83;20145;-70
2022/05/12 04:36:59;;;;;;;;;;;;;;;11.25;100.00;100125.53;1729222;83;20398;-70
2022/05/12 04:39:26;;;;;;;;;;;;;;;11.53;100.00;100127.81;1729433;83;20125;-70
2022/05/12 04:41:53;;;;;;;;;;;;;;;11.74;100.00;100122.64;1728733;83;20109;-70
2022/05/12 04:44:20;;;;;;;;;;;;;;;11.93;100.00;100125.95;1726796;83;20132;-70
2022/05/12 04:46:47;;;;;;;;;;;;;;;12.14;100.00;100125.32;1726925;83;20132;-70
2022/05/12 04:49:14;;;;;;;;;;;;;;;12.39;100.00;100123.80;1726743;82;20125;-71
2022/05/12 04:51:41;;;;;;;;;;;;;;;12.62;100.00;100128.69;1727003;83;20460;-70
2022/05/12 04:54:09;;;;;;;;;;;;;;;12.87;100.00;100128.48;1726708;82;20117;-70
2022/05/12 04:56:37;;;;;;;;;;;;;;;13.11;100.00;100121.97;1727247;83;20397;-70
2022/05/12 04:59:04;;;;;;;;;;;;;;;13.31;100.00;100130.44;1708194;83;20144;-70
2022/05/12 05:01:31;;;;;;;;;;;;;;;13.52;100.00;100126.98;1724162;83;20361;-70
2022/05/12 05:04:00;;;;;;;;;;;;;;;13.73;100.00;100122.66;1697029;85;20134;-71
2022/05/12 05:06:28;;;;;;;;;;;;;;;13.95;100.00;100130.34;1696397;85;20103;-71
2022/05/12 05:08:57;;;;;;;;;;;;;;;14.11;100.00;100130.12;1616206;88;20134;-71
2022/05/12 05:11:24;;;;;;;;;;;;;;;14.24;100.00;100126.70;1634584;88;20096;-71
2022/05/12 05:13:53;;;;;;;;;;;;;;;14.37;100.00;100127.35;1634446;88;20108;-70
2022/05/12 05:16:20;;;;;;;;;;;;;;;14.49;100.00;100125.80;1634715;88;20108;-70
2022/05/12 05:18:47;;;;;;;;;;;;;;;14.59;100.00;100125.52;1634134;88;20108;-70
2022/05/12 05:21:14;;;;;;;;;;;;;;;14.72;100.00;100133.78;1634401;88;20120;-70
2022/05/12 05:23:41;;;;;;;;;;;;;;;14.94;100.00;100131.89;1656939;86;20460;-71
2022/05/12 05:26:08;;;;;;;;;;;;;;;15.18;100.00;100136.56;1634458;88;20417;-70
2022/05/12 05:28:36;;;;;;;;;;;;;;;15.47;100.00;100134.64;1634231;88;20594;-70
2022/05/12 05:31:04;;;;;;;;;;;;;;;15.77;99.65;100135.24;1634236;88;20136;-71
2022/05/12 05:33:31;;;;;;;;;;;;;;;16.06;97.13;100127.30;1634017;86;20400;-70
2022/05/12 05:35:58;;;;;;;;;;;;;;;16.30;94.47;100131.33;1633609;88;20109;-69
2022/05/12 05:38:25;;;;;;;;;;;;;;;16.44;91.88;100127.27;1633441;88;20136;-71
2022/05/12 05:40:54;;;;;;;;;;;;;;;16.55;91.40;100128.55;1624638;88;20111;-69
2022/05/12 05:43:20;;;;;;;;;;;;;;;16.69;92.75;100123.41;1612583;88;20152;-70
2022/05/12 05:45:47;;;;;;;;;;;;;;;16.87;89.29;100122.31;1615784;89;20175;-69
2022/05/12 05:48:14;;;;;;;;;;;;;;;17.01;87.12;100123.12;1615649;87;20454;-69
2022/05/12 05:53:30;;;;;;;;;;;;;;;17.43;85.21;100116.86;1614825;89;20159;-70
2022/05/12 05:55:58;;;;;;;;;;;;;;;17.73;83.33;100123.72;1614720;87;20523;-69
2022/05/12 05:58:26;;;;;;;;;;;;;;;17.93;82.15;100127.22;1615058;89;20193;-69
2022/05/12 06:00:54;;;;;;;;;;;;;;;18.13;81.57;100115.34;1614669;89;20110;-69
2022/05/12 06:03:21;;;;;;;;;;;;;;;18.35;79.18;100114.49;1614744;89;20534;-68
2022/05/12 06:05:48;;;;;;;;;;;;;;;18.64;78.87;100111.64;1615597;89;20118;-69
2022/05/12 06:08:17;;;;;;;;;;;;;;;18.89;74.00;100113.06;1615079;89;20154;-69
2022/05/12 06:10:45;;;;;;;;;;;;;;;19.02;72.22;100111.27;1614838;89;20153;-72
2022/05/12 06:13:12;;;;;;;;;;;;;;;19.20;70.65;100111.84;1694356;84;20142;-70
2022/05/12 06:15:40;;;;;;;;;;;;;;;19.38;68.67;100107.73;1674767;86;20125;-72
2022/05/12 06:18:13;;;;;;;;;;;;;;;19.64;69.17;100105.23;1673697;85;20438;-72
2022/05/12 06:20:41;;;;;;;;;;;;;;;19.89;66.43;100103.78;1674926;86;20159;-69
2022/05/12 06:23:09;;;;;;;;;;;;;;;20.02;63.43;100102.76;1674875;86;20110;-70
2022/05/12 06:25:36;;;;;;;;;;;;;;;20.12;61.95;100104.14;1675060;86;20149;-70
2022/05/12 06:28:03;;;;;;;;;;;;;;;20.15;61.78;100103.65;1675658;86;20098;-71
2022/05/12 06:30:30;;;;;;;;;;;;;;;20.24;61.13;100100.36;1675420;84;20102;-69
2022/05/12 06:32:57;;;;;;;;;;;;;;;20.36;61.48;100107.27;1675674;86;20414;-69
2022/05/12 06:35:25;;;;;;;;;;;;;;;20.55;60.39;100099.78;1674472;86;20165;-70
2022/05/12 06:37:53;;;;;;;;;;;;;;;20.71;58.86;100090.05;1674757;86;20090;-72
2022/05/12 06:40:20;;;;;;;;;;;;;;;20.89;56.98;100091.02;1674867;86;20439;-71
2022/05/12 06:42:47;;;;;;;;;;;;;;;20.84;56.64;100087.09;1682930;84;20134;-72
2022/05/12 06:45:18;;;;;;;;;;;;;;;20.94;58.37;100085.66;1703164;83;20191;-72
2022/05/12 06:47:48;;;;;;;;;;;;;;;21.16;57.91;100086.73;1733111;83;20112;-72
2022/05/12 06:50:15;;;;;;;;;;;;;;;21.27;55.55;100085.59;1733465;81;20136;-70
2022/05/12 06:52:42;;;;;;;;;;;;;;;21.29;54.50;100091.14;1735802;83;20515;-68
2022/05/12 06:55:09;;;;;;;;;;;;;;;21.34;54.76;100088.51;1732133;83;20143;-68
2022/05/12 06:57:37;;;;;;;;;;;;;;;21.44;53.02;100086.50;1731424;83;20125;-71
2022/05/12 07:00:05;;;;;;;;;;;;;;;21.57;53.49;100083.53;1733174;83;20136;-72
2022/05/12 07:02:33;;;;;;;;;;;;;;;21.68;53.91;100084.58;1733756;83;20101;-71
2022/05/12 07:05:00;;;;;;;;;;;;;;;21.85;53.44;100080.54;1733854;81;20139;-71
2022/05/12 07:07:28;;;;;;;;;;;;;;;21.88;52.38;100083.33;1710003;83;20135;-72
2022/05/12 07:09:55;;;;;;;;;;;;;;;21.98;52.19;100089.04;1704005;84;20155;-71
2022/05/12 07:12:23;;;;;;;;;;;;;;;22.31;51.65;100076.45;1703884;84;20147;-70
2022/05/12 07:14:51;;;;;;;;;;;;;;;22.66;48.32;100078.16;1704463;84;20135;-71
2022/05/12 07:17:20;;;;;;;;;;;;;;;22.74;45.45;100078.59;1704035;83;20456;-70
2022/05/12 07:19:47;;;;;;;;;;;;;;;22.72;44.11;100080.77;1638045;87;20143;-69
2022/05/12 07:27:45;;;;;;;;;;;;;;;22.85;41.39;100074.06;1607568;89;20111;-70
2022/05/12 07:30:12;;;;;;;;;;;;;;;22.89;40.26;100072.47;1607947;89;20207;-77
2022/05/12 07:32:38;;;;;;;;;;;;;;;22.92;39.13;100066.46;1606901;89;20131;-76
2022/05/12 07:35:06;;;;;;;;;;;;;;;22.98;39.12;100068.75;1607857;89;20189;-76
2022/05/12 07:37:33;;;;;;;;;;;;;;;23.07;38.47;100071.42;1629997;88;20137;-79
2022/05/12 07:40:00;;;;;;;;;;;;;;;23.16;37.08;100065.45;1634828;88;20179;-73
2022/05/12 07:42:27;;;;;;;;;;;;;;;23.18;37.71;100075.16;1634311;86;20225;-77
2022/05/12 07:44:54;;;;;;;;;;;;;;;23.23;36.52;100073.00;1660296;86;20150;-75
2022/05/12 07:47:21;;;;;;;;;;;;;;;23.24;36.19;100073.30;1661433;86;20173;-74
2022/05/12 07:49:47;;;;;;;;;;;;;;;23.20;35.36;100074.91;1661311;86;20445;-76
2022/05/12 07:52:15;;;;;;;;;;;;;;;23.19;35.20;100073.23;1660566;86;20149;-74
2022/05/12 07:54:42;;;;;;;;;;;;;;;23.26;35.65;100071.13;1660668;86;20129;-74
2022/05/12 07:57:09;;;;;;;;;;;;;;;23.49;35.92;100073.64;1660741;86;20485;-73
2022/05/12 07:59:38;;;;;;;;;;;;;;;23.74;35.89;100069.53;1660641;86;20508;-75
2022/05/12 08:02:04;;;;;;;;;;;;;;;23.94;35.96;100059.84;1661103;86;20162;-76
2022/05/12 08:04:34;;;;;;;;;;;;;;;24.05;35.13;100058.33;1660761;86;20166;-75
2022/05/12 08:07:01;;;;;;;;;;;;;;;24.01;35.37;100064.62;1660204;86;20438;-74
2022/05/12 08:09:28;;;;;;;;;;;;;;;24.04;36.12;100068.25;1661003;86;20133;-76
2022/05/12 08:11:55;;;;;;;;;;;;;;;24.24;35.33;100067.09;1660953;86;20122;-76
2022/05/12 08:14:22;;;;;;;;;;;;;;;24.40;34.91;100056.16;1657200;86;20162;-73
2022/05/12 08:16:50;;;;;;;;;;;;;;;24.60;35.51;100057.77;1701705;83;20265;-75
2022/05/12 08:19:16;;;;;;;;;;;;;;;24.77;34.74;100064.55;1765616;81;20168;-75
2022/05/12 08:21:44;;;;;;;;;;;;;;;24.92;34.54;100057.46;1765345;81;20126;-76
2022/05/12 08:24:10;;;;;;;;;;;;;;;24.98;34.32;100055.86;1765156;81;20156;-74
2022/05/12 08:26:37;;;;;;;;;;;;;;;25.08;34.37;100057.02;1765657;81;20441;-76
2022/05/12 08:29:04;;;;;;;;;;;;;;;25.12;34.06;100050.66;1766350;81;20148;-76
2022/05/12 08:31:31;;;;;;;;;;;;;;;25.20;33.79;100052.94;1751907;81;20123;-73
2022/05/12 08:33:59;;;;;;;;;;;;;;;25.18;33.72;100052.38;1735387;83;20120;-75
2022/05/12 08:36:27;;;;;;;;;;;;;;;25.16;33.94;100042.66;1735680;83;20155;-71
2022/05/12 08:39:00;;;;;;;;;;;;;;;25.31;33.64;100058.00;1735765;83;20119;-75
2022/05/12 08:41:36;;;;;;;;;;;;;;;25.43;32.95;100056.94;1736361;83;20156;-74
2022/05/12 08:44:08;;;;;;;;;;;;;;;25.41;32.85;100049.46;1710066;83;20108;-75
2022/05/12 08:46:44;;;;;;;;;;;;;;;25.46;33.74;100046.72;1739271;83;20147;-75
2022/05/12 08:49:23;;;;;;;;;;;;;;;25.75;33.54;100058.20;1739244;83;20147;-73
2022/05/12 08:52:12;;;;;;;;;;;;;;;26.09;33.18;100048.90;1739415;83;20100;-74
2022/05/12 08:54:42;;;;;;;;;;;;;;;26.22;31.81;100047.53;1739932;83;20136;-75
2022/05/12 08:57:13;;;;;;;;;;;;;;;25.79;31.98;100052.95;1739813;81;20132;-75
2022/05/12 08:59:40;;;;;;;;;;;;;;;25.64;32.31;100049.03;1732708;83;20234;-76
2022/05/12 09:02:17;;;;;;;;;;;;;;;25.65;31.81;100038.22;1710835;83;21687;-72
2022/05/12 09:04:56;;;;;;;;;;;;;;;25.56;32.46;100042.06;1677945;85;20169;-74
2022/05/12 09:07:29;;;;;;;;;;;;;;;25.71;32.87;100044.07;1679856;85;20110;-75
2022/05/12 09:10:14;;;;;;;;;;;;;;;25.79;32.68;100043.27;1680159;85;20102;-75
2022/05/12 09:12:52;;;;;;;;;;;;;;;25.66;32.46;100039.89;1680318;85;20461;-71
2022/05/12 09:15:24;;;;;;;;;;;;;;;25.58;32.63;100039.02;1680233;85;20131;-73
2022/05/12 09:18:02;;;;;;;;;;;;;;;25.66;33.39;100036.30;1680394;84;20487;-71
2022/05/12 09:20:31;;;;;;;;;;;;;;;25.66;32.67;100041.28;1680731;85;20634;-75
2022/05/12 09:22:59;;;;;;;;;;;;;;;25.65;32.79;100035.45;1680961;85;20463;-78
2022/05/12 09:25:46;;;;;;;;;;;;;;;25.85;32.81;100038.86;1680529;85;20137;-76
2022/05/12 09:31:04;;;;;;;;;;;;;;;25.89;32.12;100028.89;1662027;85;20123;-74
2022/05/12 09:33:34;;;;;;;;;;;;;;;25.83;31.92;100030.53;1680300;85;20165;-75
2022/05/12 09:36:28;;;;;;;;;;;;;;;25.87;31.64;100022.80;1623968;88;20139;-74
2022/05/12 09:38:57;;;;;;;;;;;;;;;26.06;32.89;100027.28;1617855;88;20186;-73
2022/05/12 09:41:39;;;;;;;;;;;;;;;26.26;31.14;100016.79;1635191;86;20126;-77
2022/05/12 09:44:27;;;;;;;;;;;;;;;26.12;30.85;100030.34;1662520;86;20142;-76
2022/05/12 09:47:07;;;;;;;;;;;;;;;26.02;31.42;100020.63;1644851;87;20115;-76
2022/05/12 09:49:40;;;;;;;;;;;;;;;26.31;32.13;100028.42;1644763;87;20144;-74
2022/05/12 09:52:26;;;;;;;;;;;;;;;26.50;31.63;100021.22;1615305;89;20129;-76
2022/05/12 09:55:14;;;;;;;;;;;;;;;26.72;31.80;100015.98;1622418;88;20118;-75
2022/05/12 09:57:53;;;;;;;;;;;;;;;26.98;31.38;100004.27;1621847;89;20173;-74
2022/05/12 10:00:38;;;;;;;;;;;;;;;27.09;30.46;100002.30;1622218;89;20114;-74
2022/05/12 10:09:30;;;;;;;;;;;;;;;26.53;29.36;99993.50;1597125;90;20140;-74
2022/05/12 10:12:01;;;;;;;;;;;;;;;26.47;29.20;99996.84;1596339;90;20305;-71
2022/05/12 10:14:56;;;;;;;;;;;;;;;26.39;29.05;99996.56;1596411;90;20163;-74
2022/05/12 10:17:41;;;;;;;;;;;;;;;26.42;28.64;99989.06;1596289;90;20143;-73
2022/05/12 10:20:18;;;;;;;;;;;;;;;26.59;29.16;99995.72;1596303;90;20283;-73
2022/05/12 10:23:07;;;;;;;;;;;;;;;26.64;28.09;99987.42;1597006;90;20171;-74
2022/05/12 10:25:57;;;;;;;;;;;;;;;26.46;28.44;99978.53;1593139;90;20311;-75
2022/05/12 10:28:31;;;;;;;;;;;;;;;26.24;29.19;99988.53;1614452;89;20125;-68
2022/05/12 10:31:22;;;;;;;;;;;;;;;26.13;29.66;99985.45;1612342;89;20109;-72
2022/05/12 10:34:02;;;;;;;;;;;;;;;26.35;30.32;99989.36;1581515;90;20137;-69
2022/05/12 10:36:48;;;;;;;;;;;;;;;26.63;29.42;99982.44;1580505;91;20382;-69
2022/05/12 10:39:18;;;;;;;;;;;;;;;26.67;30.18;99975.22;1580176;91;20125;-70
2022/05/12 10:42:14;;;;;;;;;;;;;;;26.82;29.51;99974.34;1545812;93;20979;-69
2022/05/12 10:45:03;;;;;;;;;;;;;;;26.89;29.42;99977.66;1564143;92;20151;-69
2022/05/12 10:47:52;;;;;;;;;;;;;;;26.82;28.58;99973.52;1574748;90;20147;-69
2022/05/12 10:50:25;;;;;;;;;;;;;;;26.41;28.44;99963.85;1624873;87;20140;-68
2022/05/12 10:52:58;;;;;;;;;;;;;;;26.16;29.67;99966.90;1570318;91;20436;-68
2022/05/12 10:55:47;;;;;;;;;;;;;;;26.19;30.13;99969.66;1617446;88;20137;-68
2022/05/12 10:58:33;;;;;;;;;;;;;;;26.24;29.76;99957.19;1603357;88;20168;-69
2022/05/12 11:01:12;;;;;;;;;;;;;;;26.37;30.20;99944.17;1598254;90;20168;-67
2022/05/12 11:03:58;;;;;;;;;;;;;;;26.49;29.79;99950.27;1599861;90;20157;-68
2022/05/12 11:06:28;;;;;;;;;;;;;;;26.66;28.90;99940.27;1599915;90;20143;-69
2022/05/12 11:08:57;;;;;;;;;;;;;;;26.71;28.16;99937.48;1599776;88;20280;-70
2022/05/12 11:11:27;;;;;;;;;;;;;;;26.84;28.82;99945.80;1599906;90;20197;-68
2022/05/12 11:14:13;;;;;;;;;;;;;;;27.00;29.11;99931.31;1600031;90;20433;-67
2022/05/12 11:16:43;;;;;;;;;;;;;;;27.12;29.06;99928.20;1599843;90;20436;-70
2022/05/12 11:19:19;;;;;;;;;;;;;;;27.24;29.06;99916.78;1563621;91;20368;-70
2022/05/12 11:22:21;;;;;;;;;;;;;;;27.26;29.11;99919.52;1550207;93;20175;-71
2022/05/12 11:25:08;;;;;;;;;;;;;;;27.20;29.41;99904.59;1568015;91;20121;-71
2022/05/12 11:27:46;;;;;;;;;;;;;;;27.25;28.57;99899.84;1571144;91;20461;-68
2022/05/12 11:30:17;;;;;;;;;;;;;;;27.05;29.14;99899.36;1550243;93;20159;-70
2022/05/12 11:33:13;;;;;;;;;;;;;;;27.05;28.69;99897.16;1591583;90;20115;-70
2022/05/12 11:35:48;;;;;;;;;;;;;;;27.09;29.43;99901.86;1555776;92;20146;-71
2022/05/12 11:41:10;;;;;;;;;;;;;;;27.38;29.27;99911.47;1585410;91;20119;-70
2022/05/12 11:46:42;;;;;;;;;;;;;;;27.87;29.77;99903.65;1645401;87;20428;-72
2022/05/12 11:49:15;;;;;;;;;;;;;;;28.10;29.03;99885.42;1645989;87;20448;-69
2022/05/12 11:51:45;;;;;;;;;;;;;;;27.95;28.61;99882.77;1645912;87;20124;-72
2022/05/12 11:54:32;;;;;;;;;;;;;;;27.59;29.66;99882.45;1646017;87;20119;-72
2022/05/12 11:56:59;;;;;;;;;;;;;;;27.75;30.29;99867.89;1646116;87;20103;-73
2022/05/12 11:59:33;;;;;;;;;;;;;;;28.01;29.08;99872.72;1646049;87;20144;-71
2022/05/12 12:02:25;;;;;;;;;;;;;;;27.92;28.33;99875.01;1645960;87;20120;-70
2022/05/12 12:04:52;;;;;;;;;;;;;;;27.70;28.50;99885.16;1646001;87;20119;-73
2022/05/12 12:07:38;;;;;;;;;;;;;;;27.60;28.23;99884.66;1645910;87;20124;-68
2022/05/12 12:10:26;;;;;;;;;;;;;;;27.42;28.60;99873.68;1645676;87;20095;-70
2022/05/12 12:13:00;;;;;;;;;;;;;;;27.45;28.84;99874.50;1646000;87;20123;-69
2022/05/12 12:15:32;;;;;;;;;;;;;;;27.56;28.78;99873.30;1627510;88;20180;-68
2022/05/12 12:18:00;;;;;;;;;;;;;;;27.46;28.79;99866.42;1606592;89;20448;-69
2022/05/12 12:20:33;;;;;;;;;;;;;;;27.48;29.64;99865.57;1618338;87;20246;-70
2022/05/12 12:23:28;;;;;;;;;;;;;;;27.46;28.85;99870.59;1655749;87;20142;-70
2022/05/12 12:25:58;;;;;;;;;;;;;;;27.25;29.78;99853.20;1657231;87;20198;-71
2022/05/12 12:29:04;;;;;;;;;;;;;;;27.14;30.27;99855.77;1657074;87;20107;-70
2022/05/12 12:31:45;;;;;;;;;;;;;;;27.10;30.56;99851.34;1657164;87;20095;-70
2022/05/12 12:34:24;;;;;;;;;;;;;;;27.09;30.45;99853.84;1657115;85;20107;-74
2022/05/12 12:36:57;;;;;;;;;;;;;;;27.17;30.98;99848.27;1658698;84;20102;-74
2022/05/12 12:39:36;;;;;;;;;;;;;;;27.25;31.57;99842.09;1658565;87;20435;-72
2022/05/12 12:42:28;;;;;;;;;;;;;;;27.48;31.24;99842.54;1658069;87;20135;-70
2022/05/12 12:45:01;;;;;;;;;;;;;;;27.58;31.10;99842.47;1657649;87;20267;-68
2022/05/12 12:47:41;;;;;;;;;;;;;;;27.56;30.78;99834.42;1650617;85;20143;-70
2022/05/12 12:50:40;;;;;;;;;;;;;;;27.55;30.28;99839.73;1648147;87;20166;-69
2022/05/12 12:53:05;;;;;;;;;;;;;;;27.49;30.32;99829.76;1681555;83;20139;-70
2022/05/12 12:58:36;;;;;;;;;;;;;;;27.44;29.92;99829.23;1703362;84;20404;-70
2022/05/12 13:01:06;;;;;;;;;;;;;;;27.30;30.37;99839.32;1698748;83;20211;-69
2022/05/12 13:03:33;;;;;;;;;;;;;;;27.16;29.66;99824.39;1700381;84;20178;-70
2022/05/12 13:06:10;;;;;;;;;;;;;;;27.09;29.35;99812.22;1703897;84;20110;-71
2022/05/12 13:08:37;;;;;;;;;;;;;;;27.02;29.44;99820.88;1641230;87;20119;-71
2022/05/12 13:11:05;;;;;;;;;;;;;;;27.06;30.54;99823.91;1641512;87;20147;-69
2022/05/12 13:13:32;;;;;;;;;;;;;;;27.26;30.03;99825.72;1642074;87;20121;-70
2022/05/12 13:16:00;;;;;;;;;;;;;;;27.23;28.90;99811.02;1642425;87;20116;-70
2022/05/12 13:18:31;;;;;;;;;;;;;;;27.12;29.33;99812.22;1641725;87;20227;-68
2022/05/12 13:20:59;;;;;;;;;;;;;;;27.05;29.29;99807.80;1639487;86;20116;-71
2022/05/12 13:23:30;;;;;;;;;;;;;;;26.95;30.04;99807.03;1638654;88;20112;-67
2022/05/12 13:25:58;;;;;;;;;;;;;;;27.02;30.18;99808.39;1638924;86;20147;-70